Time;durP1;ratioP1;P1;durP2;ratioP2;P2;SDS_P1;SDS_P2;PMS_P1;PMS_P2;Temp;Humidity;BMP_temperature;BMP_pressure;BME280_temperature;BME280_humidity;BME280_pressure;Samples;Min_cycle;Max_cycle;Signal;HPM_P1;HPM_P2
2022/04/01 00:02:23;;;;;;;6.18;2.30;;;3.20;99.90;;;;;;4975167;28;20085;-62
2022/04/01 00:04:48;;;;;;;4.68;2.30;;;3.20;99.90;;;;;;4974191;28;20033;-62
2022/04/01 00:07:14;;;;;;;5.20;2.50;;;3.20;99.90;;;;;;4975596;28;20027;-62
2022/04/01 00:09:40;;;;;;;5.63;2.38;;;3.10;99.90;;;;;;4974973;28;20030;-62
2022/04/01 00:12:07;;;;;;;3.45;2.33;;;2.90;99.90;;;;;;4975051;28;20031;-61
2022/04/01 00:14:33;;;;;;;4.03;2.15;;;4.00;99.90;;;;;;4975028;28;20483;-62
2022/04/01 00:17:00;;;;;;;6.43;1.98;;;2.80;99.90;;;;;;4975311;28;20114;-62
2022/04/01 00:19:27;;;;;;;5.38;2.25;;;2.90;99.90;;;;;;4975151;28;20027;-61
2022/04/01 00:21:53;;;;;;;8.00;2.40;;;2.80;99.90;;;;;;4975482;28;20475;-61
2022/04/01 00:24:19;;;;;;;4.25;1.98;;;2.70;99.90;;;;;;4974430;28;20053;-61
2022/04/01 00:26:45;;;;;;;5.25;2.00;;;2.70;99.90;;;;;;4974668;28;20031;-62
2022/04/01 00:29:15;;;;;;;6.93;2.30;;;2.80;99.90;;;;;;4975130;28;20081;-62
2022/04/01 00:31:58;;;;;;;6.53;2.17;;;2.80;99.90;;;;;;4974730;28;20047;-61
2022/04/01 00:34:26;;;;;;;5.43;2.17;;;2.90;99.90;;;;;;4972060;28;20057;-61
2022/04/01 00:36:52;;;;;;;7.68;2.15;;;2.80;99.90;;;;;;4974863;28;20073;-61
2022/04/01 00:39:19;;;;;;;5.50;2.13;;;2.70;99.90;;;;;;4974482;28;20030;-61
2022/04/01 00:41:46;;;;;;;5.63;2.00;;;2.80;99.90;;;;;;4974439;28;20018;-61
2022/04/01 00:44:21;;;;;;;6.57;2.20;;;3.00;99.90;;;;;;4974371;28;20038;-61
2022/04/01 00:46:53;;;;;;;6.18;1.98;;;2.90;99.90;;;;;;4959530;28;20058;-61
2022/04/01 00:49:20;;;;;;;5.88;2.15;;;3.00;99.90;;;;;;4974554;28;20027;-61
2022/04/01 00:51:48;;;;;;;6.28;2.20;;;2.60;99.90;;;;;;4975097;28;20047;-61
2022/04/01 00:54:15;;;;;;;7.43;2.42;;;2.80;99.90;;;;;;4973989;28;20041;-61
2022/04/01 00:56:41;;;;;;;9.02;2.40;;;2.90;99.90;;;;;;4974194;28;20393;-61
2022/04/01 00:59:08;;;;;;;4.90;2.25;;;;;;;;;;4974446;28;20030;-62
2022/04/01 01:01:35;;;;;;;6.95;2.05;;;2.70;99.90;;;;;;4974157;28;20070;-61
2022/04/01 01:04:07;;;;;;;6.32;2.17;;;2.70;99.90;;;;;;4975016;28;20037;-61
2022/04/01 01:06:37;;;;;;;6.50;2.38;;;2.60;99.90;;;;;;4973979;28;20107;-61
2022/04/01 01:09:03;;;;;;;7.53;1.90;;;2.60;99.90;;;;;;4972867;28;20030;-61
2022/04/01 01:11:31;;;;;;;9.73;2.22;;;2.60;99.90;;;;;;4974491;28;20098;-61
2022/04/01 01:13:57;;;;;;;6.68;2.20;;;2.60;99.90;;;;;;4973755;28;20027;-61
2022/04/01 01:16:23;;;;;;;7.72;2.13;;;2.60;99.90;;;;;;4973876;28;20034;-62
2022/04/01 01:19:14;;;;;;;9.02;2.80;;;2.60;99.90;;;;;;4974714;28;20042;-61
2022/04/01 01:21:40;;;;;;;10.50;3.10;;;2.50;99.90;;;;;;4973558;28;20515;-61
2022/04/01 01:24:08;;;;;;;6.63;2.22;;;2.40;99.90;;;;;;4973517;28;20395;-61
2022/04/01 01:26:36;;;;;;;7.80;2.55;;;2.40;99.90;;;;;;4973637;28;20510;-61
2022/04/01 01:29:04;;;;;;;9.48;2.42;;;2.40;99.90;;;;;;4973753;28;20022;-61
2022/04/01 01:31:30;;;;;;;5.88;2.20;;;2.40;99.90;;;;;;4973625;28;20085;-61
2022/04/01 01:33:58;;;;;;;6.95;2.55;;;2.30;99.90;;;;;;4973756;28;20051;-61
2022/04/01 01:36:29;;;;;;;11.82;2.90;;;2.30;99.90;;;;;;4973083;28;20030;-62
2022/04/01 01:38:55;;;;;;;7.45;2.67;;;2.20;99.90;;;;;;4973807;28;20031;-61
2022/04/01 01:41:21;;;;;;;9.93;2.90;;;2.20;99.90;;;;;;4973502;28;20400;-61
2022/04/01 01:43:47;;;;;;;7.95;2.40;;;2.20;99.90;;;;;;4973394;28;20041;-61
2022/04/01 01:46:13;;;;;;;12.10;2.50;;;2.20;99.90;;;;;;4974415;28;20019;-62
2022/04/01 01:48:39;;;;;;;7.47;2.75;;;2.20;99.90;;;;;;4972962;28;20070;-61
2022/04/01 01:56:33;;;;;;;11.18;4.03;;;2.40;99.90;;;;;;4973096;28;20133;-61
2022/04/01 01:58:59;;;;;;;10.00;2.75;;;2.30;99.90;;;;;;4973494;28;20062;-61
2022/04/01 02:01:25;;;;;;;10.98;2.95;;;2.40;99.90;;;;;;4973050;28;20440;-61
2022/04/01 02:03:51;;;;;;;11.20;3.63;;;2.40;99.90;;;;;;4973222;28;20456;-61
2022/04/01 02:06:21;;;;;;;16.35;4.75;;;2.30;99.90;;;;;;4972716;28;20126;-61
2022/04/01 02:08:47;;;;;;;14.88;4.25;;;2.20;99.90;;;;;;4973256;28;20097;-62
2022/04/01 02:11:14;;;;;;;9.35;3.58;;;2.30;99.90;;;;;;4972910;28;20023;-61
2022/04/01 02:13:40;;;;;;;13.20;3.80;;;2.30;99.90;;;;;;4972900;28;20035;-61
2022/04/01 02:16:05;;;;;;;14.80;5.55;;;2.40;99.90;;;;;;4973319;28;20049;-61
2022/04/01 02:18:31;;;;;;;21.10;7.30;;;2.20;99.90;;;;;;4971043;28;20038;-61
2022/04/01 02:20:57;;;;;;;10.75;3.03;;;2.40;99.90;;;;;;4972664;28;20027;-61
2022/04/01 02:23:22;;;;;;;16.60;5.00;;;2.30;99.90;;;;;;4972642;28;20026;-61
2022/04/01 02:25:48;;;;;;;27.25;11.20;;;2.20;99.90;;;;;;4972745;28;20098;-61
2022/04/01 02:28:14;;;;;;;13.32;5.60;;;2.10;99.90;;;;;;4972795;28;20030;-61
2022/04/01 02:30:40;;;;;;;15.85;5.40;;;2.10;99.90;;;;;;4971732;28;20046;-61
2022/04/01 02:33:06;;;;;;;16.02;5.90;;;2.10;99.90;;;;;;4972054;28;20515;-61
2022/04/01 02:35:33;;;;;;;8.65;3.00;;;2.10;99.90;;;;;;4972161;28;20042;-61
2022/04/01 02:37:59;;;;;;;10.38;3.13;;;2.20;99.90;;;;;;4972422;28;20496;-61
2022/04/01 02:40:25;;;;;;;13.20;3.10;;;2.20;99.90;;;;;;4972771;28;20015;-61
2022/04/01 02:42:53;;;;;;;16.48;5.90;;;2.30;99.90;;;;;;4972924;28;20463;-60
2022/04/01 02:45:26;;;;;;;10.35;3.08;;;2.30;99.90;;;;;;4972397;28;20106;-61
2022/04/01 02:47:52;;;;;;;28.30;11.48;;;2.40;99.90;;;;;;4972137;28;20161;-61
2022/04/01 02:50:20;;;;;;;39.15;18.92;;;2.30;99.90;;;;;;4972596;28;20050;-61
2022/04/01 02:52:45;;;;;;;23.30;10.05;;;2.30;99.90;;;;;;4957187;28;20400;-61
2022/04/01 02:55:12;;;;;;;21.33;6.55;;;2.20;99.90;;;;;;4972757;28;20026;-61
2022/04/01 02:57:38;;;;;;;30.27;10.00;;;2.20;99.90;;;;;;4972299;28;20054;-60
2022/04/01 03:00:09;;;;;;;23.48;10.80;;;2.30;99.90;;;;;;4971955;28;20031;-61
2022/04/01 03:02:38;;;;;;;16.55;5.78;;;2.30;99.90;;;;;;4971745;28;20030;-61
2022/04/01 03:05:07;;;;;;;14.93;5.47;;;2.20;99.90;;;;;;4972247;28;20027;-61
2022/04/01 03:07:33;;;;;;;13.07;4.35;;;2.10;99.90;;;;;;4972254;28;20035;-61
2022/04/01 03:09:59;;;;;;;12.80;3.88;;;2.10;99.90;;;;;;4973286;28;20129;-61
2022/04/01 03:12:25;;;;;;;13.52;4.25;;;2.10;99.90;;;;;;4972122;28;20109;-61
2022/04/01 03:14:51;;;;;;;10.80;3.13;;;2.10;99.90;;;;;;4972017;28;20027;-61
2022/04/01 03:17:17;;;;;;;12.88;3.40;;;2.00;99.90;;;;;;4971841;28;20045;-61
2022/04/01 03:19:44;;;;;;;10.98;3.40;;;2.10;99.90;;;;;;4971806;28;20551;-61
2022/04/01 03:22:09;;;;;;;10.10;3.05;;;2.00;99.90;;;;;;4972550;28;20492;-61
2022/04/01 03:24:35;;;;;;;13.82;3.47;;;2.00;99.90;;;;;;4971689;28;20085;-61
2022/04/01 03:27:02;;;;;;;12.80;4.22;;;1.80;99.90;;;;;;4972379;28;20038;-61
2022/04/01 03:29:28;;;;;;;13.93;4.28;;;1.80;99.90;;;;;;4971732;28;20031;-61
2022/04/01 03:31:54;;;;;;;19.10;3.72;;;1.80;99.90;;;;;;4971754;28;20082;-61
2022/04/01 03:34:20;;;;;;;11.82;4.20;;;1.80;99.90;;;;;;4972063;28;20039;-61
2022/04/01 03:36:46;;;;;;;16.30;6.28;;;1.90;99.90;;;;;;4972077;28;20039;-61
2022/04/01 03:39:12;;;;;;;10.75;3.83;;;2.00;99.90;;;;;;4973182;28;20439;-61
2022/04/01 03:41:39;;;;;;;16.80;4.53;;;2.00;99.90;;;;;;4975967;28;20042;-61
2022/04/01 03:44:05;;;;;;;12.07;3.80;;;2.00;99.90;;;;;;4975537;28;20057;-64
2022/04/01 03:46:50;;;;;;;9.85;3.65;;;2.00;99.90;;;;;;4975524;28;20023;-60
2022/04/01 03:49:25;;;;;;;11.45;3.10;;;1.90;99.90;;;;;;4972625;28;20035;-61
2022/04/01 03:51:54;;;;;;;9.27;3.53;;;2.00;99.90;;;;;;4975511;28;20077;-61
2022/04/01 03:54:19;;;;;;;12.05;4.20;;;2.00;99.90;;;;;;4973912;28;20041;-61
2022/04/01 03:56:53;;;;;;;14.23;3.88;;;2.00;99.90;;;;;;4975635;28;20133;-60
2022/04/01 03:59:20;;;;;;;;;;;2.00;99.90;;;;;;4974420;28;20034;-60
2022/04/01 04:01:46;;;;;;;15.48;3.80;;;2.00;99.90;;;;;;4975072;28;19917;-61
2022/04/01 04:04:13;;;;;;;16.25;5.63;;;2.00;99.90;;;;;;4975947;28;20384;-61
2022/04/01 04:06:40;;;;;;;9.85;3.80;;;1.90;99.90;;;;;;4975065;28;20047;-61
2022/04/01 04:09:06;;;;;;;11.70;4.88;;;1.90;99.90;;;;;;4975091;28;20045;-61
2022/04/01 04:11:33;;;;;;;13.23;5.07;;;;;;;;;;4974704;28;20026;-61
2022/04/01 04:14:02;;;;;;;13.52;3.90;;;1.80;99.90;;;;;;4974822;28;20027;-61
2022/04/01 04:16:36;;;;;;;13.95;4.25;;;2.10;99.90;;;;;;4975248;28;20027;-61
2022/04/01 04:19:07;;;;;;;12.15;4.20;;;2.20;99.90;;;;;;4974490;28;20372;-60
2022/04/01 04:21:42;;;;;;;9.52;2.88;;;2.20;99.90;;;;;;4974687;28;20480;-61
2022/04/01 04:24:17;;;;;;;13.85;5.75;;;2.10;99.90;;;;;;4974755;28;20041;-61
2022/04/01 04:26:53;;;;;;;13.30;4.13;;;1.90;99.90;;;;;;4974747;28;20074;-61
2022/04/01 04:29:20;;;;;;;11.88;3.97;;;1.90;99.90;;;;;;4975120;28;20050;-61
2022/04/01 04:32:04;;;;;;;11.32;3.70;;;2.00;99.90;;;;;;4974636;28;20387;-61
2022/04/01 04:34:38;;;;;;;11.30;3.10;;;1.90;99.90;;;;;;4973028;28;20065;-61
2022/04/01 04:37:11;;;;;;;13.05;3.20;;;1.90;99.90;;;;;;4975206;28;20181;-60
2022/04/01 04:39:40;;;;;;;10.38;3.70;;;1.80;99.90;;;;;;4974735;28;20030;-61
2022/04/01 04:42:09;;;;;;;9.02;3.20;;;1.70;99.90;;;;;;4974432;28;20071;-60
2022/04/01 04:44:36;;;;;;;6.75;2.90;;;1.70;99.90;;;;;;4974117;28;20515;-61
2022/04/01 04:47:07;;;;;;;12.90;4.25;;;1.60;99.90;;;;;;4974656;28;20030;-61
2022/04/01 04:49:34;;;;;;;10.40;3.75;;;1.70;99.90;;;;;;4974861;28;20282;-61
2022/04/01 04:52:01;;;;;;;13.63;3.22;;;1.50;99.90;;;;;;4974561;28;20023;-61
2022/04/01 04:54:26;;;;;;;13.38;3.75;;;1.50;99.90;;;;;;4974154;28;20030;-61
2022/04/01 04:56:55;;;;;;;9.35;3.53;;;1.60;99.90;;;;;;4974118;28;20038;-61
2022/04/01 04:59:22;;;;;;;12.75;2.92;;;1.70;99.90;;;;;;4974160;28;20081;-61
2022/04/01 05:02:04;;;;;;;11.35;3.30;;;1.50;99.90;;;;;;4974531;28;20106;-61
2022/04/01 05:04:58;;;;;;;10.65;3.08;;;1.50;99.90;;;;;;4974463;28;20031;-61
2022/04/01 05:07:50;;;;;;;11.88;3.30;;;1.20;99.90;;;;;;4971781;28;20040;-61
2022/04/01 05:10:24;;;;;;;11.27;2.83;;;1.10;99.90;;;;;;4970985;28;20125;-61
2022/04/01 05:13:34;;;;;;;10.10;2.80;;;1.10;99.90;;;;;;4973849;28;20039;-61
2022/04/01 05:16:07;;;;;;;10.30;2.80;;;1.10;99.90;;;;;;4972140;28;20440;-61
2022/04/01 05:18:42;;;;;;;10.47;2.97;;;1.10;99.90;;;;;;4971952;28;20049;-61
2022/04/01 05:21:19;;;;;;;13.57;3.08;;;0.80;99.90;;;;;;4971438;28;20046;-61
2022/04/01 05:24:00;;;;;;;13.38;2.70;;;0.60;99.90;;;;;;4971437;28;20511;-60
2022/04/01 05:26:42;;;;;;;10.43;2.90;;;0.60;99.90;;;;;;4971211;28;20129;-60
2022/04/01 05:29:18;;;;;;;8.82;2.90;;;;;;;;;;4971022;28;20428;-61
2022/04/01 05:31:55;;;;;;;11.60;2.90;;;0.30;99.90;;;;;;4956241;28;20607;-61
2022/04/01 05:34:43;;;;;;;10.88;2.72;;;0.40;99.90;;;;;;4968566;28;20061;-60
2022/04/01 05:37:09;;;;;;;12.88;3.53;;;;;;;;;;4971537;28;20092;-59
2022/04/01 05:39:37;;;;;;;8.15;3.10;;;0.30;99.90;;;;;;4971313;28;20068;-60
2022/04/01 05:42:07;;;;;;;11.82;3.10;;;0.00;99.90;;;;;;4969925;28;20486;-60
2022/04/01 05:44:34;;;;;;;13.18;3.25;;;0.20;99.90;;;;;;4969457;28;20030;-60
2022/04/01 05:47:01;;;;;;;13.85;3.63;;;0.00;99.90;;;;;;4971561;28;20030;-60
2022/04/01 05:49:28;;;;;;;10.50;3.13;;;-0.10;99.90;;;;;;4971134;28;20110;-60
2022/04/01 05:51:54;;;;;;;13.45;3.72;;;0.00;99.90;;;;;;4972403;28;20042;-61
2022/04/01 05:54:22;;;;;;;13.35;3.80;;;-0.20;99.90;;;;;;4973008;28;20063;-60
2022/04/01 05:56:49;;;;;;;14.25;4.72;;;-0.20;99.90;;;;;;4972660;28;20054;-59
2022/04/01 05:59:17;;;;;;;12.32;4.95;;;-0.20;99.90;;;;;;4973077;28;20047;-60
2022/04/01 06:01:48;;;;;;;9.75;4.10;;;-0.10;99.90;;;;;;4972348;28;20078;-60
2022/04/01 06:04:50;;;;;;;14.98;4.20;;;0.00;99.90;;;;;;4968957;28;20172;-60
2022/04/01 06:07:32;;;;;;;10.57;3.58;;;0.30;99.90;;;;;;4969535;28;20029;-60
2022/04/01 06:10:05;;;;;;;15.00;3.58;;;0.80;99.90;;;;;;4971303;28;20039;-59
2022/04/01 06:13:01;;;;;;;16.15;7.90;;;1.50;99.90;;;;;;4972409;28;20022;-59
2022/04/01 06:15:30;;;;;;;22.63;18.92;;;3.10;99.90;;;;;;4972591;28;20062;-60
2022/04/01 06:18:24;;;;;;;16.70;11.05;;;3.70;99.90;;;;;;4972529;28;20103;-59
2022/04/01 06:20:53;;;;;;;16.30;7.28;;;4.70;99.90;;;;;;4972940;28;20042;-60
2022/04/01 06:23:51;;;;;;;14.20;5.40;;;5.50;99.90;;;;;;4972461;28;20034;-60
2022/04/01 06:26:18;;;;;;;9.85;4.40;;;5.20;99.90;;;;;;4972213;28;20037;-61
2022/04/01 06:29:09;;;;;;;11.57;3.72;;;5.30;99.90;;;;;;4957151;28;20034;-60
2022/04/01 06:31:36;;;;;;;10.68;3.08;;;6.20;99.90;;;;;;4971472;28;20046;-61
2022/04/01 06:34:14;;;;;;;9.43;3.40;;;6.60;99.90;;;;;;4973064;28;20077;-60
2022/04/01 06:36:49;;;;;;;9.80;3.00;;;7.20;99.90;;;;;;4972255;28;20086;-59
2022/04/01 06:39:26;;;;;;;8.13;2.90;;;7.20;99.90;;;;;;4972440;28;20034;-60
2022/04/01 06:41:57;;;;;;;10.32;2.90;;;7.80;99.90;;;;;;4972514;28;20548;-61
2022/04/01 06:44:23;;;;;;;7.07;2.45;;;8.80;99.90;;;;;;4972456;28;20411;-60
2022/04/01 06:46:50;;;;;;;6.28;2.63;;;8.30;99.90;;;;;;4972210;28;20479;-60
2022/04/01 06:49:16;;;;;;;7.25;2.35;;;9.20;99.90;;;;;;4972406;28;20034;-61
2022/04/01 06:51:42;;;;;;;8.70;2.60;;;8.90;99.90;;;;;;4972280;28;20484;-60
2022/04/01 06:54:08;;;;;;;8.23;2.53;;;10.80;99.90;;;;;;4972390;28;20027;-61
2022/04/01 06:56:34;;;;;;;7.63;2.60;;;12.80;97.10;;;;;;4972030;28;20088;-60
2022/04/01 06:59:00;;;;;;;10.52;3.33;;;11.50;95.20;;;;;;4972479;28;20027;-61
2022/04/01 07:01:26;;;;;;;9.55;3.97;;;11.70;94.30;;;;;;4972439;28;20079;-61
2022/04/01 07:03:52;;;;;;;8.65;3.72;;;10.00;96.00;;;;;;4972884;28;20037;-61
2022/04/01 07:06:20;;;;;;;8.77;2.80;;;10.60;96.30;;;;;;4972341;28;20396;-61
2022/04/01 07:08:47;;;;;;;6.43;2.28;;;11.80;95.20;;;;;;4972211;28;20031;-61
2022/04/01 07:11:14;;;;;;;7.55;2.70;;;10.10;95.00;;;;;;4971719;28;20031;-60
2022/04/01 07:13:40;;;;;;;8.70;2.97;;;10.30;95.30;;;;;;4972457;28;20399;-61
2022/04/01 07:16:06;;;;;;;7.45;2.50;;;9.90;95.90;;;;;;4977103;28;20019;-60
2022/04/01 07:18:34;;;;;;;7.30;2.88;;;10.80;94.70;;;;;;4975698;28;20053;-61
2022/04/01 07:20:59;;;;;;;7.35;2.75;;;10.10;95.20;;;;;;4975981;28;20034;-61
2022/04/01 07:23:27;;;;;;;8.32;2.97;;;11.70;94.60;;;;;;4975881;28;20381;-61
2022/04/01 07:25:52;;;;;;;8.60;3.75;;;12.90;93.30;;;;;;4975993;28;20037;-61
2022/04/01 07:28:18;;;;;;;8.77;3.92;;;11.50;92.70;;;;;;4976039;28;20121;-61
2022/04/01 07:30:44;;;;;;;9.20;3.92;;;14.20;90.50;;;;;;4976289;28;20039;-61
2022/04/01 07:33:10;;;;;;;10.38;4.30;;;15.30;90.00;;;;;;4975701;28;20039;-61
2022/04/01 07:35:36;;;;;;;8.23;3.30;;;15.80;88.50;;;;;;4975244;28;20130;-61
2022/04/01 07:38:03;;;;;;;10.98;4.82;;;17.40;85.90;;;;;;4975325;28;20047;-60
2022/04/01 07:40:30;;;;;;;9.48;2.92;;;15.50;86.70;;;;;;4975690;28;20035;-61
2022/04/01 07:42:56;;;;;;;7.25;2.25;;;17.30;79.80;;;;;;4974384;28;20034;-61
2022/04/01 07:45:23;;;;;;;12.85;2.80;;;18.80;77.10;;;;;;4975341;28;20042;-61
2022/04/01 07:47:51;;;;;;;7.55;2.60;;;17.40;78.30;;;;;;4975284;28;20039;-61
2022/04/01 07:50:18;;;;;;;6.28;2.60;;;13.60;81.90;;;;;;4975288;28;20030;-61
2022/04/01 07:52:44;;;;;;;9.45;2.58;;;16.30;79.60;;;;;;4959764;28;20400;-61
2022/04/01 07:55:16;;;;;;;9.02;2.78;;;16.10;80.70;;;;;;4975743;28;20029;-61
2022/04/01 07:57:43;;;;;;;6.32;2.67;;;16.20;80.00;;;;;;4975655;28;20043;-61
2022/04/01 08:00:10;;;;;;;7.95;2.92;;;14.70;78.00;;;;;;4974864;28;20027;-61
2022/04/01 08:02:36;;;;;;;6.47;2.60;;;16.20;78.60;;;;;;4975202;28;20034;-61
2022/04/01 08:05:02;;;;;;;8.82;2.65;;;14.50;77.30;;;;;;4975114;28;20555;-61
2022/04/01 08:07:28;;;;;;;8.18;2.00;;;15.60;81.00;;;;;;4974837;28;20019;-61
2022/04/01 08:09:54;;;;;;;6.07;2.47;;;16.90;75.00;;;;;;4975404;28;20511;-61
2022/04/01 08:12:20;;;;;;;7.50;2.10;;;19.60;71.70;;;;;;4975335;28;20030;-61
2022/04/01 08:14:46;;;;;;;6.40;2.22;;;18.20;68.60;;;;;;4974834;28;20034;-61
2022/04/01 08:17:14;;;;;;;5.70;1.80;;;17.50;69.40;;;;;;4974728;28;20046;-61
2022/04/01 08:19:41;;;;;;;6.03;1.92;;;17.80;67.20;;;;;;4974809;28;20446;-61
2022/04/01 08:22:07;;;;;;;5.05;1.75;;;20.10;68.40;;;;;;4975464;28;20027;-61
2022/04/01 08:24:32;;;;;;;8.57;2.17;;;18.50;68.80;;;;;;4974552;28;20034;-61
2022/04/01 08:27:00;;;;;;;4.82;1.90;;;19.20;65.60;;;;;;4972516;28;20026;-61
2022/04/01 08:29:27;;;;;;;5.90;1.83;;;17.30;67.10;;;;;;4974455;28;20035;-61
2022/04/01 08:31:54;;;;;;;4.47;1.90;;;15.90;70.60;;;;;;4974975;28;20031;-61
2022/04/01 08:34:20;;;;;;;7.35;2.20;;;15.10;71.10;;;;;;4974492;28;20515;-61
2022/04/01 08:36:46;;;;;;;5.22;2.00;;;17.70;70.50;;;;;;4974278;28;20100;-61
2022/04/01 08:39:11;;;;;;;5.32;2.15;;;19.70;65.70;;;;;;4974204;28;20130;-61
2022/04/01 08:41:37;;;;;;;6.45;2.08;;;20.60;62.50;;;;;;4974371;28;20026;-61
2022/04/01 08:44:04;;;;;;;5.30;1.80;;;18.00;64.90;;;;;;4974097;28;20496;-61
2022/04/01 08:46:30;;;;;;;5.88;2.15;;;21.10;61.90;;;;;;4974902;28;20031;-61
2022/04/01 08:48:56;;;;;;;6.78;2.08;;;20.90;63.30;;;;;;4972729;28;20026;-61
2022/04/01 08:51:22;;;;;;;3.83;1.40;;;19.50;61.70;;;;;;4973753;28;20023;-61
2022/04/01 08:53:48;;;;;;;6.10;2.13;;;17.10;62.90;;;;;;4974077;28;20077;-61
2022/04/01 08:56:19;;;;;;;6.05;1.70;;;19.50;64.00;;;;;;4974137;28;20019;-61
2022/04/01 08:58:45;;;;;;;2.70;1.50;;;19.40;62.80;;;;;;4989933;28;20043;-61
2022/04/01 09:01:11;;;;;;;5.47;1.70;;;19.50;63.60;;;;;;4974621;28;20030;-61
2022/04/01 09:03:38;;;;;;;4.85;2.00;;;21.20;59.60;;;;;;4974172;28;20061;-61
2022/04/01 09:06:05;;;;;;;8.98;2.28;;;17.90;62.50;;;;;;4973467;28;20062;-61
2022/04/01 09:08:35;;;;;;;6.05;1.92;;;14.50;69.70;;;;;;4973730;28;20361;-61
2022/04/01 09:11:03;;;;;;;5.20;1.90;;;17.20;70.80;;;;;;4973801;28;20023;-60
2022/04/01 09:13:51;;;;;;;3.72;2.20;;;17.10;63.60;;;;;;4973931;28;20041;-60
2022/04/01 09:16:36;;;;;;;3.63;1.92;;;16.60;66.20;;;;;;4974250;28;20043;-61
2022/04/01 09:19:06;;;;;;;4.35;1.63;;;15.40;68.70;;;;;;4972797;28;20043;-61
2022/04/01 09:21:39;;;;;;;3.78;1.40;;;17.60;65.60;;;;;;4973124;28;20384;-61
2022/04/01 09:24:06;;;;;;;3.37;1.50;;;17.30;63.10;;;;;;4973454;28;20447;-61
2022/04/01 09:26:35;;;;;;;3.60;1.63;;;19.30;61.90;;;;;;4973928;28;20279;-61
2022/04/01 09:29:03;;;;;;;4.07;2.10;;;19.50;60.50;;;;;;4973667;28;20031;-61
2022/04/01 09:31:34;;;;;;;3.00;1.55;;;18.70;60.00;;;;;;4973674;28;20042;-61
2022/04/01 09:34:01;;;;;;;6.05;1.52;;;19.70;60.60;;;;;;4972134;28;20027;-61
2022/04/01 09:36:33;;;;;;;4.63;1.20;;;19.50;60.10;;;;;;4972730;28;20065;-61
2022/04/01 09:39:06;;;;;;;3.47;1.33;;;15.40;61.40;;;;;;4973873;28;20030;-61
2022/04/01 09:41:44;;;;;;;4.55;1.40;;;17.10;61.70;;;;;;4973172;28;20023;-61
2022/04/01 09:44:17;;;;;;;3.03;1.10;;;16.40;62.10;;;;;;4973260;28;20476;-61
2022/04/01 09:46:52;;;;;;;2.72;1.17;;;16.40;60.80;;;;;;4973235;28;20027;-61
2022/04/01 09:49:39;;;;;;;3.58;1.10;;;13.30;66.00;;;;;;4969639;28;20354;-61
2022/04/01 09:52:11;;;;;;;2.25;1.00;;;16.20;62.90;;;;;;4972892;28;20153;-62
2022/04/01 09:54:50;;;;;;;4.05;1.25;;;15.10;62.30;;;;;;4972826;28;20042;-61
2022/04/01 09:57:18;;;;;;;2.42;1.00;;;16.80;60.10;;;;;;4972834;28;20488;-61
2022/04/01 09:59:45;;;;;;;2.47;1.33;;;17.20;60.60;;;;;;4972813;28;20110;-61
2022/04/01 10:02:11;;;;;;;2.50;1.17;;;17.70;58.20;;;;;;4972846;28;20027;-61
2022/04/01 10:04:37;;;;;;;3.50;1.10;;;17.30;63.00;;;;;;4972549;28;20050;-61
2022/04/01 10:07:04;;;;;;;6.03;1.20;;;17.60;59.40;;;;;;4973829;28;20487;-61
2022/04/01 10:09:31;;;;;;;4.50;1.40;;;16.00;62.10;;;;;;4972722;28;20121;-61
2022/04/01 10:12:03;;;;;;;5.93;1.08;;;16.00;65.50;;;;;;4972546;28;20431;-61
2022/04/01 10:14:31;;;;;;;2.78;1.00;;;14.20;62.80;;;;;;4972563;28;20022;-61
2022/04/01 10:17:00;;;;;;;5.43;1.08;;;16.20;62.30;;;;;;4972948;28;20031;-61
2022/04/01 10:19:29;;;;;;;2.88;1.30;;;16.60;60.30;;;;;;4972334;28;20058;-61
2022/04/01 10:21:56;;;;;;;2.72;1.10;;;15.00;61.70;;;;;;4973093;28;20031;-61
2022/04/01 10:24:54;;;;;;;4.00;1.00;;;14.40;62.10;;;;;;4972380;28;20030;-62
2022/04/01 10:27:30;;;;;;;2.65;1.02;;;14.00;64.50;;;;;;4972504;28;20045;-61
2022/04/01 10:29:59;;;;;;;3.33;1.20;;;13.90;64.70;;;;;;4970863;28;20468;-61
2022/04/01 10:32:28;;;;;;;4.00;1.10;;;14.20;61.30;;;;;;4972090;28;20113;-61
2022/04/01 10:34:59;;;;;;;3.72;1.33;;;13.50;67.20;;;;;;4972312;28;20047;-62
2022/04/01 10:37:26;;;;;;;2.22;1.00;;;12.50;69.10;;;;;;4972440;28;20543;-61
2022/04/01 10:40:20;;;;;;;2.90;1.17;;;14.90;66.80;;;;;;4973197;28;20037;-61
2022/04/01 10:42:47;;;;;;;3.28;1.10;;;16.30;65.10;;;;;;4972564;28;20496;-61
2022/04/01 10:45:16;;;;;;;4.53;1.30;;;14.60;66.50;;;;;;4972040;28;20492;-61
2022/04/01 10:53:37;;;;;;;3.63;1.10;;;15.20;65.20;;;;;;4972303;28;20126;-61
2022/04/01 10:56:22;;;;;;;4.35;1.20;;;13.90;69.60;;;;;;4972390;28;20838;-61
2022/04/01 10:59:11;;;;;;;2.70;1.20;;;15.40;65.10;;;;;;4957018;28;20065;-61
2022/04/01 11:02:00;;;;;;;3.28;1.13;;;12.60;63.10;;;;;;4966519;28;20055;-62
2022/04/01 11:04:32;;;;;;;3.03;1.13;;;11.80;67.00;;;;;;4966418;28;20037;-61
2022/04/01 11:06:57;;;;;;;4.60;1.33;;;11.40;69.20;;;;;;4970745;28;20490;-61
2022/04/01 11:09:36;;;;;;;2.75;1.10;;;13.30;67.50;;;;;;4972326;28;20121;-61
2022/04/01 11:12:23;;;;;;;2.85;1.33;;;14.00;68.30;;;;;;4972404;28;20037;-62
2022/04/01 11:15:04;;;;;;;3.03;1.20;;;13.00;70.50;;;;;;4971948;28;20041;-62
2022/04/01 11:17:36;;;;;;;4.15;1.35;;;13.00;69.20;;;;;;4971601;28;20051;-62
2022/04/01 11:20:22;;;;;;;5.15;1.48;;;14.00;69.70;;;;;;4972197;28;20026;-61
2022/04/01 11:22:54;;;;;;;3.40;1.05;;;13.80;69.00;;;;;;4950016;28;20380;-61
2022/04/01 11:25:23;;;;;;;2.90;1.40;;;14.00;71.90;;;;;;4972593;28;20035;-62
2022/04/01 11:28:04;;;;;;;3.90;1.20;;;14.60;68.00;;;;;;4971440;28;20038;-61
2022/04/01 11:30:32;;;;;;;4.50;1.35;;;13.80;65.30;;;;;;4971541;28;20042;-61
2022/04/01 11:33:00;;;;;;;5.22;1.27;;;13.30;67.80;;;;;;4971887;28;20045;-61
2022/04/01 11:35:32;;;;;;;4.82;1.40;;;12.30;69.70;;;;;;4971548;28;20492;-61
2022/04/01 11:38:00;;;;;;;4.45;1.33;;;12.70;70.60;;;;;;4971873;28;20041;-61
2022/04/01 11:40:30;;;;;;;4.05;1.40;;;13.10;71.50;;;;;;4972048;28;20037;-62
2022/04/01 11:43:02;;;;;;;6.45;1.60;;;13.20;68.60;;;;;;4972117;28;20027;-62
2022/04/01 11:45:37;;;;;;;3.17;1.45;;;12.60;71.80;;;;;;4971327;28;20037;-62
2022/04/01 11:48:18;;;;;;;5.65;1.30;;;13.00;67.90;;;;;;4971613;28;20035;-62
2022/04/01 11:50:52;;;;;;;4.35;2.00;;;12.90;71.70;;;;;;4971808;28;20039;-62
2022/04/01 11:53:32;;;;;;;5.22;1.70;;;13.20;67.60;;;;;;4971683;28;20039;-62
2022/04/01 11:56:03;;;;;;;3.88;1.38;;;12.50;69.70;;;;;;4958371;28;20038;-62
2022/04/01 11:58:59;;;;;;;4.57;1.38;;;12.60;67.90;;;;;;4971471;28;20415;-62
2022/04/01 12:01:55;;;;;;;6.32;1.42;;;12.80;69.80;;;;;;4972746;28;20549;-62
2022/04/01 12:04:29;;;;;;;4.18;1.33;;;13.90;68.20;;;;;;4975277;28;20026;-62
2022/04/01 12:09:42;;;;;;;4.15;1.48;;;12.80;70.50;;;;;;4975537;28;20057;-61
2022/04/01 12:12:08;;;;;;;3.30;1.30;;;12.70;70.80;;;;;;4974739;28;20031;-62
2022/04/01 12:14:34;;;;;;;4.30;1.23;;;12.10;70.70;;;;;;4974381;28;20034;-62
2022/04/01 12:17:10;;;;;;;4.95;1.60;;;12.70;71.40;;;;;;4975065;28;20039;-62
2022/04/01 12:19:36;;;;;;;2.65;1.40;;;12.60;71.50;;;;;;4975127;28;20504;-62
2022/04/01 12:22:02;;;;;;;3.35;1.88;;;12.00;76.10;;;;;;4974630;28;20019;-62
2022/04/01 12:24:30;;;;;;;5.93;1.50;;;11.10;74.40;;;;;;4974722;28;20519;-61
2022/04/01 12:26:57;;;;;;;3.50;1.20;;;11.90;74.70;;;;;;4973360;28;20446;-62
2022/04/01 12:29:28;;;;;;;4.85;1.40;;;11.60;73.60;;;;;;4974261;28;20041;-62
2022/04/01 12:31:58;;;;;;;3.05;1.35;;;12.50;72.50;;;;;;4974751;28;20038;-62
2022/04/01 12:34:25;;;;;;;3.63;1.40;;;11.40;74.10;;;;;;4974642;28;20057;-62
2022/04/01 12:36:56;;;;;;;6.03;1.65;;;12.40;73.00;;;;;;4974554;28;20369;-62
2022/04/01 12:39:22;;;;;;;4.05;1.67;;;11.80;73.70;;;;;;4974291;28;20029;-62
2022/04/01 12:41:59;;;;;;;5.72;1.70;;;12.50;74.30;;;;;;4974430;28;20023;-62
2022/04/01 12:44:31;;;;;;;4.00;1.20;;;12.40;74.30;;;;;;4974214;28;20019;-62
2022/04/01 12:47:03;;;;;;;4.72;1.40;;;11.90;74.70;;;;;;4975032;28;20042;-62
2022/04/01 12:49:33;;;;;;;2.50;1.33;;;11.60;77.70;;;;;;4974516;28;20114;-61
2022/04/01 12:52:05;;;;;;;3.35;1.20;;;10.30;77.80;;;;;;4973220;28;20040;-61
2022/04/01 12:54:39;;;;;;;4.85;1.30;;;11.40;78.70;;;;;;4974369;28;20050;-62
2022/04/01 12:57:10;;;;;;;4.40;1.33;;;12.10;73.90;;;;;;4973928;28;20043;-61
2022/04/01 12:59:39;;;;;;;7.15;1.83;;;12.10;74.10;;;;;;4974088;28;20034;-61
2022/04/01 13:02:13;;;;;;;6.25;1.63;;;11.40;73.60;;;;;;4974307;28;20387;-62
2022/04/01 13:04:44;;;;;;;8.10;1.65;;;11.20;74.20;;;;;;4974140;28;20031;-61
2022/04/01 13:07:14;;;;;;;6.95;1.60;;;11.90;74.60;;;;;;4974649;28;20038;-62
2022/04/01 13:09:54;;;;;;;6.43;1.23;;;12.00;75.70;;;;;;4974285;28;20434;-62
2022/04/01 13:12:23;;;;;;;3.92;1.40;;;11.90;72.00;;;;;;4973244;28;20026;-61
2022/04/01 13:15:04;;;;;;;6.95;1.30;;;11.70;73.30;;;;;;4973886;28;20034;-61
2022/04/01 13:17:50;;;;;;;2.40;1.25;;;11.50;74.80;;;;;;4973678;28;20031;-61
2022/04/01 13:20:20;;;;;;;5.32;1.40;;;12.30;73.10;;;;;;4974164;28;20046;-61
2022/04/01 13:22:46;;;;;;;9.25;1.30;;;12.90;72.50;;;;;;4958796;28;20082;-62